Time;durP1;ratioP1;P1;durP2;ratioP2;P2;SDS_P1;SDS_P2;PMS_P1;PMS_P2;Temp;Humidity;BMP_temperature;BMP_pressure;BME280_temperature;BME280_humidity;BME280_pressure;Samples;Min_cycle;Max_cycle;Signal;HPM_P1;HPM_P2
2019/11/25 00:00:57;;;;;;;10.4;6.7;;;;;;;6.29;80.91309;929.6172;;;;
2019/11/25 00:03:30;;;;;;;9.7;6.6;;;;;;;6.39;80.38965;929.6404;;;;
2019/11/25 00:05:58;;;;;;;10.4;6.4;;;;;;;6.44;80.08301;929.6294;;;;
2019/11/25 00:08:22;;;;;;;13.5;8;;;;;;;6.53;80.36035;929.5829;;;;
2019/11/25 00:10:47;;;;;;;11.7;7.8;;;;;;;6.51;80.54883;929.6049;;;;
2019/11/25 00:13:19;;;;;;;13.8;7.6;;;;;;;6.5;79.86719;929.5683;;;;
2019/11/25 00:15:45;;;;;;;11.1;7.8;;;;;;;6.55;79.62793;929.5356;;;;
2019/11/25 00:18:16;;;;;;;11.9;7.7;;;;;;;6.47;79.61328;929.5569;;;;
2019/11/25 00:20:50;;;;;;;10.1;7.4;;;;;;;6.44;79.49512;929.5725;;;;
2019/11/25 00:23:21;;;;;;;10.7;6.9;;;;;;;6.49;78.58496;929.5817;;;;
2019/11/25 00:25:46;;;;;;;10.3;6;;;;;;;6.4;79.44336;929.6002;;;;
2019/11/25 00:28:19;;;;;;;9.5;5.4;;;;;;;6.33;79.90234;929.56;;;;
2019/11/25 00:30:57;;;;;;;7.6;5.2;;;;;;;6.35;79.4873;929.4827;;;;
2019/11/25 00:33:22;;;;;;;7.7;5.3;;;;;;;6.17;79.72852;929.4804;;;;
2019/11/25 00:35:49;;;;;;;7.9;5;;;;;;;6.15;79.82422;929.4935;;;;
2019/11/25 00:38:14;;;;;;;7.6;5.5;;;;;;;6.17;80.1582;929.4614;;;;
2019/11/25 00:40:42;;;;;;;7.5;5.1;;;;;;;6.14;80.35352;929.4626;;;;
2019/11/25 00:43:12;;;;;;;6.7;4.7;;;;;;;6.15;80.30957;929.514;;;;
2019/11/25 00:45:36;;;;;;;6.7;4.9;;;;;;;6.29;79.36328;929.4299;;;;
2019/11/25 00:47:58;;;;;;;8.2;5.3;;;;;;;6.27;79.37109;929.4564;;;;
2019/11/25 00:50:23;;;;;;;8.2;4.8;;;;;;;6.17;79.7832;929.5009;;;;
2019/11/25 00:53:19;;;;;;;7.6;4.8;;;;;;;6.2;79.29102;929.442;;;;
2019/11/25 00:55:16;;;;;;;7.1;4.5;;;;;;;6.3;78.67676;929.5248;;;;
2019/11/25 00:57:45;;;;;;;6.5;4.6;;;;;;;6.32;78.59082;929.525;;;;
2019/11/25 01:00:12;;;;;;;7.8;4.8;;;;;;;6.36;79.05957;929.5712;;;;
2019/11/25 01:05:08;;;;;;;5.6;4.2;;;;;;;6.06;79.40039;929.6473;;;;
2019/11/25 01:07:40;;;;;;;7;4.4;;;;;;;6.1;79.14844;929.6415;;;;
2019/11/25 01:10:07;;;;;;;7.1;4;;;;;;;6.12;79.31055;929.5975;;;;
2019/11/25 01:12:43;;;;;;;6;4.2;;;;;;;6.05;79.55664;929.6165;;;;
2019/11/25 01:15:11;;;;;;;6.2;4.1;;;;;;;5.88;78.9375;929.6492;;;;
2019/11/25 01:18:15;;;;;;;6.6;4.3;;;;;;;5.66;78.4248;929.7804;;;;
2019/11/25 01:20:03;;;;;;;6.1;4.6;;;;;;;5.69;78.97168;929.7018;;;;
2019/11/25 01:22:28;;;;;;;7.1;5.1;;;;;;;5.69;79.1416;929.7966;;;;
2019/11/25 01:24:59;;;;;;;8.5;5.3;;;;;;;5.69;79.84082;929.7855;;;;
2019/11/25 01:27:25;;;;;;;7.8;5.4;;;;;;;5.63;79.95313;929.7609;;;;
2019/11/25 01:29:55;;;;;;;8;5.5;;;;;;;5.63;79.10742;929.8076;;;;
2019/11/25 01:32:19;;;;;;;8.5;5.7;;;;;;;5.61;78.76465;929.8208;;;;
2019/11/25 01:34:45;;;;;;;8.8;5.9;;;;;;;5.51;79.70605;929.8356;;;;
2019/11/25 01:37:11;;;;;;;8.1;5.5;;;;;;;5.54;79.63184;929.75;;;;
2019/11/25 01:39:37;;;;;;;9.4;5.1;;;;;;;5.45;79.49316;929.8782;;;;
2019/11/25 01:42:05;;;;;;;7.4;5.5;;;;;;;5.14;81.87891;929.8649;;;;
2019/11/25 01:44:34;;;;;;;7.5;5.3;;;;;;;5.26;81.72266;929.8427;;;;
2019/11/25 01:47:18;;;;;;;8.1;5.2;;;;;;;5.31;81.8457;929.8505;;;;
2019/11/25 01:49:48;;;;;;;7;5.2;;;;;;;5.35;82.33789;929.8195;;;;
2019/11/25 01:52:18;;;;;;;7.2;5.3;;;;;;;5.41;81.41406;929.812;;;;
2019/11/25 01:54:52;;;;;;;8.9;5.6;;;;;;;5.41;81.29883;929.8056;;;;
2019/11/25 01:57:18;;;;;;;8.9;5.5;;;;;;;5.38;81.25977;929.8436;;;;
2019/11/25 01:59:47;;;;;;;8.9;5.4;;;;;;;5.31;81.29297;929.8908;;;;
2019/11/25 02:02:12;;;;;;;8.2;4.5;;;;;;;5.29;81.69629;929.8636;;;;
2019/11/25 02:04:42;;;;;;;7.3;4.9;;;;;;;5.24;81.77539;929.8668;;;;
2019/11/25 02:07:07;;;;;;;6.8;4.3;;;;;;;5.14;82.73633;929.9202;;;;
2019/11/25 02:09:35;;;;;;;7.2;5.1;;;;;;;5.05;83.61035;929.9472;;;;
2019/11/25 02:12:01;;;;;;;6.5;4.5;;;;;;;5.18;82.72168;929.8868;;;;
2019/11/25 02:14:28;;;;;;;7;4.3;;;;;;;5.21;82.25391;929.8553;;;;
2019/11/25 02:17:00;;;;;;;7.2;4.2;;;;;;;5.28;81.86133;929.8681;;;;
2019/11/25 02:19:24;;;;;;;6.3;3.8;;;;;;;5.41;80.72559;929.8317;;;;
2019/11/25 02:21:51;;;;;;;6.3;3.7;;;;;;;5.46;80.54199;929.8783;;;;
2019/11/25 02:24:20;;;;;;;4.9;3.9;;;;;;;5.45;81.09375;929.8031;;;;
2019/11/25 02:26:49;;;;;;;5.7;3.7;;;;;;;5.4;80.94727;929.8794;;;;
2019/11/25 02:29:19;;;;;;;5.6;3.8;;;;;;;5.32;80.79883;929.9367;;;;
2019/11/25 02:31:44;;;;;;;5;3.6;;;;;;;5.35;80.41016;929.9214;;;;
2019/11/25 02:34:16;;;;;;;5.8;3.9;;;;;;;5.46;79.97949;929.9763;;;;
2019/11/25 02:36:42;;;;;;;4.9;3.9;;;;;;;5.48;79.62012;929.8572;;;;
2019/11/25 02:39:09;;;;;;;7.7;4.1;;;;;;;5.55;79.64453;929.9199;;;;
2019/11/25 02:41:36;;;;;;;6.4;4.1;;;;;;;5.47;80.06055;929.8406;;;;
2019/11/25 02:44:07;;;;;;;6.1;3.9;;;;;;;5.28;80.75586;929.9708;;;;
2019/11/25 02:46:35;;;;;;;6.2;4.1;;;;;;;5.32;80.09766;930.0069;;;;
2019/11/25 02:48:58;;;;;;;7;3.9;;;;;;;5.3;80.28613;929.9861;;;;
2019/11/25 02:51:23;;;;;;;5.2;3.6;;;;;;;5.3;80.41016;929.9506;;;;
2019/11/25 02:53:53;;;;;;;5.8;4.1;;;;;;;5.24;80.66895;929.9252;;;;
2019/11/25 02:56:14;;;;;;;5.8;3.5;;;;;;;5.25;80.88672;929.9988;;;;
2019/11/25 02:58:46;;;;;;;4.9;3.7;;;;;;;5.31;80.06348;929.9791;;;;
2019/11/25 03:01:10;;;;;;;4.9;3.8;;;;;;;5.4;79.43555;929.9182;;;;
2019/11/25 03:03:45;;;;;;;8;5.1;;;;;;;5.41;79.46191;929.996;;;;
2019/11/25 03:06:11;;;;;;;7.4;4.9;;;;;;;5.43;79.42188;929.9347;;;;
2019/11/25 03:08:42;;;;;;;7.4;3.6;;;;;;;5.23;79.51855;929.9179;;;;
2019/11/25 03:11:09;;;;;;;6.5;3.6;;;;;;;5.12;80.15039;929.9419;;;;
2019/11/25 03:13:33;;;;;;;5.5;3.8;;;;;;;5.16;79.95605;929.9395;;;;
2019/11/25 03:16:01;;;;;;;6.1;3.7;;;;;;;5.19;79.74707;929.8957;;;;
2019/11/25 03:22:15;;;;;;;6.4;4.6;;;;;;;5.08;80.87695;929.9571;;;;
2019/11/25 03:24:38;;;;;;;7.5;4.3;;;;;;;4.95;81.14551;929.9997;;;;
2019/11/25 03:27:01;;;;;;;5.4;4;;;;;;;5.09;80.36914;930.0148;;;;
2019/11/25 03:29:26;;;;;;;6.1;4.2;;;;;;;5.15;79.87402;930.0458;;;;
2019/11/25 03:32:45;;;;;;;9.5;4.1;;;;;;;5.14;79.62598;930.0117;;;;
2019/11/25 03:35:13;;;;;;;5.4;3.9;;;;;;;5.1;79.06641;930.0181;;;;
2019/11/25 03:37:39;;;;;;;7.2;4.3;;;;;;;5.11;79.05664;930.0508;;;;
2019/11/25 03:40:06;;;;;;;9.1;4.4;;;;;;;5.06;79.53125;930.0563;;;;
2019/11/25 03:42:36;;;;;;;6.7;3.9;;;;;;;4.93;79.77637;930.0647;;;;
2019/11/25 03:45:02;;;;;;;5.9;4.2;;;;;;;4.92;80.1582;930.0622;;;;
2019/11/25 03:47:28;;;;;;;6.4;4.2;;;;;;;4.89;80.2998;930.038;;;;
2019/11/25 03:50:00;;;;;;;6.5;4.2;;;;;;;4.83;80.52637;930.0599;;;;
2019/11/25 03:52:32;;;;;;;8.1;3.9;;;;;;;4.83;80.32129;930.0906;;;;
2019/11/25 03:55:03;;;;;;;7.3;3.9;;;;;;;4.89;80.2207;930.0602;;;;
2019/11/25 03:57:33;;;;;;;6;3.6;;;;;;;4.75;80.46582;930.0313;;;;
2019/11/25 04:00:06;;;;;;;5.6;3.5;;;;;;;4.7;80.43262;930.0999;;;;
2019/11/25 04:03:02;;;;;;;6.1;3.2;;;;;;;4.67;80.95508;930.1072;;;;
2019/11/25 04:05:23;;;;;;;5.9;3.2;;;;;;;4.48;81.89844;930.0892;;;;
2019/11/25 04:07:55;;;;;;;4.1;3;;;;;;;4.51;81.95996;930.1284;;;;
2019/11/25 04:10:28;;;;;;;4.1;3.2;;;;;;;4.5;81.74609;930.1417;;;;
2019/11/25 04:12:51;;;;;;;5.5;2.8;;;;;;;4.49;82.02441;930.1642;;;;
2019/11/25 04:15:23;;;;;;;4.4;3;;;;;;;4.52;81.15332;930.1674;;;;
2019/11/25 04:17:51;;;;;;;4.4;3.1;;;;;;;4.59;80.84082;930.1219;;;;
2019/11/25 04:20:22;;;;;;;4.2;3.1;;;;;;;4.63;81.45508;930.1752;;;;
2019/11/25 04:22:42;;;;;;;5.3;2.9;;;;;;;4.59;81.13477;930.2048;;;;
2019/11/25 04:25:07;;;;;;;5.7;2.6;;;;;;;4.67;81.11523;930.175;;;;
2019/11/25 04:27:33;;;;;;;3.2;2.6;;;;;;;4.6;81.12402;930.1663;;;;
2019/11/25 04:29:59;;;;;;;5.7;2.9;;;;;;;4.55;81.24805;930.1387;;;;
2019/11/25 04:32:25;;;;;;;6.1;3;;;;;;;4.62;80.72168;930.2175;;;;
2019/11/25 04:34:50;;;;;;;5.9;3.2;;;;;;;4.65;80.33301;930.2085;;;;
2019/11/25 04:37:18;;;;;;;4.3;3.3;;;;;;;4.72;81.16895;930.1594;;;;
2019/11/25 04:39:41;;;;;;;4.2;3.2;;;;;;;4.75;80.75879;930.223;;;;
2019/11/25 04:42:08;;;;;;;4.1;2.8;;;;;;;4.71;80.58105;930.2333;;;;
2019/11/25 04:44:40;;;;;;;3.5;2.7;;;;;;;4.66;80.56152;930.1671;;;;
2019/11/25 04:47:05;;;;;;;6.2;2.6;;;;;;;4.47;81.61719;930.1955;;;;
2019/11/25 04:49:31;;;;;;;4.9;3.3;;;;;;;4.24;82.77637;930.1113;;;;
2019/11/25 04:52:03;;;;;;;5.1;3.1;;;;;;;4.15;83.10742;930.1453;;;;
2019/11/25 04:54:32;;;;;;;4.6;3.5;;;;;;;4.07;83.11426;930.2233;;;;
2019/11/25 04:56:55;;;;;;;6.2;3.6;;;;;;;4.05;83.18945;930.2213;;;;
2019/11/25 04:59:27;;;;;;;6.8;4.8;;;;;;;3.88;84.31543;930.179;;;;
2019/11/25 05:01:56;;;;;;;7.7;5;;;;;;;3.92;84.06445;930.1861;;;;
2019/11/25 05:04:23;;;;;;;9.9;5.6;;;;;;;3.99;84.33496;930.1844;;;;
2019/11/25 05:06:53;;;;;;;8.2;5;;;;;;;4.05;83.74219;930.1867;;;;
2019/11/25 05:09:15;;;;;;;7.2;4.7;;;;;;;;;;;;;
2019/11/25 05:11:39;;;;;;;7.9;3.8;;;;;;;;;;;;;
2019/11/25 05:14:04;;;;;;;7.9;4.4;;;;;;;;;;;;;
2019/11/25 05:16:32;;;;;;;11.2;5.5;;;;;;;;;;;;;
2019/11/25 05:18:55;;;;;;;8;5.3;;;;;;;;;;;;;
2019/11/25 05:21:19;;;;;;;8.2;5.5;;;;;;;;;;;;;
2019/11/25 05:23:49;;;;;;;9.7;6;;;;;;;;;;;;;
2019/11/25 05:28:40;;;;;;;10.4;6.1;;;;;;;;;;;;;
2019/11/25 05:31:07;;;;;;;9.2;6.1;;;;;;;;;;;;;
2019/11/25 05:33:36;;;;;;;7.1;5.4;;;;;;;;;;;;;
2019/11/25 05:35:59;;;;;;;8.4;5.7;;;;;;;;;;;;;
2019/11/25 05:38:21;;;;;;;10.9;6.9;;;;;;;;;;;;;
2019/11/25 05:40:51;;;;;;;10.7;6.4;;;;;;;;;;;;;
2019/11/25 05:43:14;;;;;;;10.8;6.2;;;;;;;;;;;;;
2019/11/25 05:45:38;;;;;;;7.5;5.3;;;;;;;;;;;;;
2019/11/25 05:48:07;;;;;;;7;4.9;;;;;;;;;;;;;
2019/11/25 05:50:30;;;;;;;7.4;5;;;;;;;;;;;;;
2019/11/25 05:52:56;;;;;;;8;5.8;;;;;;;;;;;;;
2019/11/25 05:55:20;;;;;;;14.1;7.1;;;;;;;;;;;;;
2019/11/25 05:57:49;;;;;;;8.3;6.8;;;;;;;;;;;;;
2019/11/25 06:00:12;;;;;;;10.2;6.8;;;;;;;;;;;;;
2019/11/25 06:02:42;;;;;;;12.1;6.9;;;;;;;;;;;;;
2019/11/25 06:05:08;;;;;;;12.5;8.7;;;;;;;;;;;;;
2019/11/25 06:07:34;;;;;;;12.5;8.7;;;;;;;;;;;;;
2019/11/25 06:10:04;;;;;;;17.8;12.3;;;;;;;;;;;;;
2019/11/25 06:12:30;;;;;;;15.5;11.1;;;;;;;;;;;;;
2019/11/25 06:15:51;;;;;;;18.4;12.6;;;;;;;;;;;;;
2019/11/25 06:18:26;;;;;;;16.2;11;;;;;;;;;;;;;
2019/11/25 06:20:59;;;;;;;16.3;10.2;;;;;;;;;;;;;
2019/11/25 06:23:18;;;;;;;10.8;8.5;;;;;;;;;;;;;
2019/11/25 06:25:44;;;;;;;14.3;9.9;;;;;;;;;;;;;
2019/11/25 06:28:34;;;;;;;10.9;8.1;;;;;;;;;;;;;
2019/11/25 06:30:54;;;;;;;10.3;7.7;;;;;;;;;;;;;
2019/11/25 06:33:19;;;;;;;12.4;7.2;;;;;;;;;;;;;
2019/11/25 06:35:45;;;;;;;13;7.5;;;;;;;;;;;;;
2019/11/25 06:38:12;;;;;;;13;5.5;;;;;;;;;;;;;
2019/11/25 06:40:40;;;;;;;9.2;4.9;;;;;;;;;;;;;
2019/11/25 06:43:49;;;;;;;6.6;4.2;;;;;;;;;;;;;
2019/11/25 06:46:16;;;;;;;7.4;4.6;;;;;;;;;;;;;
2019/11/25 06:48:44;;;;;;;19.3;5.6;;;;;;;;;;;;;
2019/11/25 06:51:07;;;;;;;10.6;4.9;;;;;;;;;;;;;
2019/11/25 06:53:32;;;;;;;10.2;5.8;;;;;;;;;;;;;
2019/11/25 06:56:13;;;;;;;9.5;5.2;;;;;;;;;;;;;
2019/11/25 06:58:38;;;;;;;9.4;5.4;;;;;;;;;;;;;
2019/11/25 07:01:08;;;;;;;7;4.9;;;;;;;;;;;;;
2019/11/25 07:03:35;;;;;;;8.7;5.3;;;;;;;;;;;;;
2019/11/25 07:05:57;;;;;;;7.2;5.2;;;;;;;;;;;;;
2019/11/25 07:08:23;;;;;;;9;4.9;;;;;;;;;;;;;
2019/11/25 07:10:50;;;;;;;9.5;5.3;;;;;;;;;;;;;
2019/11/25 07:13:19;;;;;;;9.2;5.3;;;;;;;;;;;;;
2019/11/25 07:15:47;;;;;;;8.5;5.4;;;;;;;;;;;;;
2019/11/25 07:18:15;;;;;;;13.5;6.5;;;;;;;;;;;;;
2019/11/25 07:20:43;;;;;;;11.6;6.1;;;;;;;;;;;;;
2019/11/25 07:23:20;;;;;;;13.2;5.9;;;;;;;;;;;;;
2019/11/25 07:25:45;;;;;;;13;6.2;;;;;;;;;;;;;
2019/11/25 07:28:28;;;;;;;10.1;5.4;;;;;;;;;;;;;
2019/11/25 07:30:57;;;;;;;6.4;4.2;;;;;;;;;;;;;
2019/11/25 07:33:32;;;;;;;5;3.8;;;;;;;;;;;;;
2019/11/25 07:36:06;;;;;;;8.9;4.4;;;;;;;;;;;;;
2019/11/25 07:38:27;;;;;;;11.8;4.7;;;;;;;;;;;;;
2019/11/25 07:40:51;;;;;;;12.5;6.9;;;;;;;;;;;;;
2019/11/25 07:43:36;;;;;;;12.7;8.1;;;;;;;;;;;;;
2019/11/25 07:45:53;;;;;;;16.4;10.9;;;;;;;;;;;;;
2019/11/25 07:48:19;;;;;;;13.7;7.4;;;;;;;;;;;;;
2019/11/25 07:51:11;;;;;;;13.5;7.6;;;;;;;;;;;;;
2019/11/25 07:55:36;;;;;;;13.4;7.2;;;;;;;;;;;;;
2019/11/25 07:58:00;;;;;;;19.8;11.6;;;;;;;;;;;;;
2019/11/25 08:00:30;;;;;;;21.8;12.5;;;;;;;;;;;;;
2019/11/25 08:02:55;;;;;;;19.7;11.3;;;;;;;;;;;;;
2019/11/25 08:05:25;;;;;;;32.8;16.9;;;;;;;;;;;;;
2019/11/25 08:07:52;;;;;;;34.9;19.2;;;;;;;;;;;;;
2019/11/25 08:10:17;;;;;;;33;18.8;;;;;;;;;;;;;
2019/11/25 08:12:44;;;;;;;36.2;17.8;;;;;;;;;;;;;
2019/11/25 08:15:36;;;;;;;22.5;11.7;;;;;;;;;;;;;
2019/11/25 08:17:41;;;;;;;16.1;5.9;;;;;;;;;;;;;
2019/11/25 08:20:16;;;;;;;11.9;5.5;;;;;;;;;;;;;
2019/11/25 08:22:41;;;;;;;12;5.3;;;;;;;;;;;;;
2019/11/25 08:25:11;;;;;;;11.1;5.9;;;;;;;;;;;;;
2019/11/25 08:27:43;;;;;;;13.9;6.7;;;;;;;;;;;;;
2019/11/25 08:30:09;;;;;;;9.1;5.1;;;;;;;;;;;;;
2019/11/25 08:32:35;;;;;;;6.4;4.3;;;;;;;;;;;;;
2019/11/25 08:35:01;;;;;;;6.4;4.1;;;;;;;;;;;;;
2019/11/25 08:37:27;;;;;;;8.5;4.1;;;;;;;;;;;;;
2019/11/25 08:40:00;;;;;;;5.6;3.2;;;;;;;;;;;;;
2019/11/25 08:42:34;;;;;;;7;3.6;;;;;;;;;;;;;
2019/11/25 08:45:05;;;;;;;6.3;3.7;;;;;;;;;;;;;
2019/11/25 08:47:37;;;;;;;6.3;3.1;;;;;;;;;;;;;
2019/11/25 08:50:06;;;;;;;6.2;3;;;;;;;;;;;;;
2019/11/25 08:52:34;;;;;;;7.5;2.7;;;;;;;;;;;;;
2019/11/25 08:55:04;;;;;;;5.6;3.1;;;;;;;;;;;;;
2019/11/25 08:57:36;;;;;;;7.2;3.3;;;;;;;;;;;;;
2019/11/25 09:00:02;;;;;;;8.9;3.6;;;;;;;;;;;;;
2019/11/25 09:02:30;;;;;;;7.1;4;;;;;;;;;;;;;
2019/11/25 09:05:06;;;;;;;7.2;3.9;;;;;;;;;;;;;
2019/11/25 09:07:18;;;;;;;11;4.9;;;;;;;;;;;;;
2019/11/25 09:09:49;;;;;;;9.5;4.7;;;;;;;;;;;;;
2019/11/25 09:12:16;;;;;;;13.2;5.3;;;;;;;;;;;;;
2019/11/25 09:14:48;;;;;;;12.1;5.8;;;;;;;;;;;;;
2019/11/25 09:17:13;;;;;;;9.9;5;;;;;;;;;;;;;
2019/11/25 09:19:43;;;;;;;5;3;;;;;;;;;;;;;
2019/11/25 09:22:13;;;;;;;9.4;5.7;;;;;;;;;;;;;
2019/11/25 09:24:37;;;;;;;10.1;4.1;;;;;;;;;;;;;
2019/11/25 09:29:36;;;;;;;6.9;2.5;;;;;;;;;;;;;
2019/11/25 09:34:40;;;;;;;17.8;3.7;;;;;;;;;;;;;
2019/11/25 09:37:05;;;;;;;6.6;3;;;;;;;;;;;;;
2019/11/25 09:40:08;;;;;;;9.6;3.7;;;;;;;;;;;;;
2019/11/25 09:42:31;;;;;;;5.5;3.2;;;;;;;;;;;;;
2019/11/25 09:45:06;;;;;;;7.1;3.5;;;;;;;;;;;;;
2019/11/25 09:50:31;;;;;;;7;3.8;;;;;;;;;;;;;
2019/11/25 09:55:24;;;;;;;5.7;4.4;;;;;;;;;;;;;
2019/11/25 09:57:39;;;;;;;7;4.5;;;;;;;;;;;;;
2019/11/25 10:00:06;;;;;;;7;4.1;;;;;;;;;;;;;
2019/11/25 10:02:41;;;;;;;6.2;3.6;;;;;;;;;;;;;
2019/11/25 10:05:16;;;;;;;3.5;2.5;;;;;;;;;;;;;
2019/11/25 10:08:42;;;;;;;6;3;;;;;;;;;;;;;
2019/11/25 10:10:13;;;;;;;5.7;2.5;;;;;;;;;;;;;
2019/11/25 10:12:45;;;;;;;5;2.7;;;;;;;;;;;;;
2019/11/25 10:17:42;;;;;;;11.8;3.9;;;;;;;;;;;;;
2019/11/25 10:20:34;;;;;;;11.2;4.1;;;;;;;;;;;;;
2019/11/25 10:22:41;;;;;;;10.2;4.2;;;;;;;;;;;;;
2019/11/25 10:25:09;;;;;;;12.2;5.5;;;;;;;;;;;;;
2019/11/25 10:27:44;;;;;;;10.5;5.4;;;;;;;;;;;;;
2019/11/25 10:30:06;;;;;;;10.5;4.4;;;;;;;;;;;;;
2019/11/25 10:32:38;;;;;;;7.5;3.9;;;;;;;;;;;;;
2019/11/25 10:35:03;;;;;;;11.5;4;;;;;;;;;;;;;
2019/11/25 10:37:25;;;;;;;8.1;3.6;;;;;;;;;;;;;
2019/11/25 10:39:52;;;;;;;7.3;3.5;;;;;;;;;;;;;
2019/11/25 10:42:20;;;;;;;5.8;3.2;;;;;;;;;;;;;
2019/11/25 10:44:41;;;;;;;6.7;3.5;;;;;;;;;;;;;
2019/11/25 10:47:06;;;;;;;6;3.4;;;;;;;;;;;;;
2019/11/25 10:49:36;;;;;;;5.1;3.4;;;;;;;;;;;;;
2019/11/25 10:52:01;;;;;;;9.4;3.4;;;;;;;;;;;;;
2019/11/25 10:54:31;;;;;;;9.3;2.8;;;;;;;;;;;;;
2019/11/25 10:59:29;;;;;;;4.1;2.8;;;;;;;;;;;;;
2019/11/25 11:02:01;;;;;;;3.6;2.5;;;;;;;;;;;;;
2019/11/25 11:04:26;;;;;;;3;2.5;;;;;;;;;;;;;
2019/11/25 11:06:55;;;;;;;5.3;3;;;;;;;;;;;;;
2019/11/25 11:09:20;;;;;;;5.2;3.2;;;;;;;;;;;;;
2019/11/25 11:11:45;;;;;;;9.1;4.4;;;;;;;;;;;;;
2019/11/25 11:14:15;;;;;;;6.4;4.7;;;;;;;;;;;;;
2019/11/25 11:16:49;;;;;;;8.5;6.2;;;;;;;;;;;;;
2019/11/25 11:21:03;;;;;;;10.8;6.8;;;;;;;;;;;;;
2019/11/25 11:23:31;;;;;;;11;9.4;;;;;;;;;;;;;
2019/11/25 11:25:55;;;;;;;11.8;10.5;;;;;;;;;;;;;
2019/11/25 11:28:20;;;;;;;15.3;12;;;;;;;;;;;;;
2019/11/25 11:30:47;;;;;;;15;12.4;;;;;;;;;;;;;
2019/11/25 11:33:09;;;;;;;16.4;13.7;;;;;;;;;;;;;
2019/11/25 11:35:41;;;;;;;19.3;15.4;;;;;;;;;;;;;
2019/11/25 11:38:12;;;;;;;20.4;16.5;;;;;;;;;;;;;
2019/11/25 11:40:37;;;;;;;21.8;17.1;;;;;;;;;;;;;
2019/11/25 11:43:37;;;;;;;21.3;17.1;;;;;;;;;;;;;
2019/11/25 11:45:51;;;;;;;24.2;19.7;;;;;;;;;;;;;
2019/11/25 11:48:31;;;;;;;24.2;19.8;;;;;;;;;;;;;
2019/11/25 11:50:43;;;;;;;24.4;19.3;;;;;;;;;;;;;
2019/11/25 11:53:10;;;;;;;22.9;18.2;;;;;;;;;;;;;
2019/11/25 11:55:40;;;;;;;23.3;19;;;;;;;;;;;;;
2019/11/25 11:58:05;;;;;;;23.7;19.6;;;;;;;;;;;;;
2019/11/25 12:00:28;;;;;;;23.6;20;;;;;;;;;;;;;
2019/11/25 12:02:55;;;;;;;24.8;19.3;;;;;;;;;;;;;
2019/11/25 12:05:24;;;;;;;25.1;19.3;;;;;;;;;;;;;
2019/11/25 12:07:53;;;;;;;24.8;19.6;;;;;;;;;;;;;
2019/11/25 12:10:20;;;;;;;22.9;18.6;;;;;;;;;;;;;
2019/11/25 12:12:45;;;;;;;21.6;17.4;;;;;;;;;;;;;
2019/11/25 12:15:13;;;;;;;21.4;17.5;;;;;;;;;;;;;
2019/11/25 12:17:36;;;;;;;22.4;17.9;;;;;;;;;;;;;
2019/11/25 12:20:01;;;;;;;20.1;16.4;;;;;;;;;;;;;
2019/11/25 12:22:36;;;;;;;20.8;16.6;;;;;;;;;;;;;
2019/11/25 12:24:51;;;;;;;20.1;16.7;;;;;;;;;;;;;
2019/11/25 12:27:23;;;;;;;20.5;16.7;;;;;;;;;;;;;
2019/11/25 12:29:54;;;;;;;21.2;17.2;;;;;;;;;;;;;
2019/11/25 12:32:22;;;;;;;21.5;16.7;;;;;;;;;;;;;
2019/11/25 12:34:50;;;;;;;19.7;16.7;;;;;;;;;;;;;
2019/11/25 12:37:14;;;;;;;19.5;16.7;;;;;;;;;;;;;
2019/11/25 12:39:46;;;;;;;18.8;16.5;;;;;;;;;;;;;
2019/11/25 12:42:06;;;;;;;22;15.9;;;;;;;;;;;;;
2019/11/25 12:44:30;;;;;;;20.8;16.4;;;;;;;;;;;;;
2019/11/25 12:47:10;;;;;;;19.5;16.3;;;;;;;;;;;;;
2019/11/25 12:49:24;;;;;;;17.6;15.5;;;;;;;;;;;;;
2019/11/25 12:51:51;;;;;;;19.9;15.5;;;;;;;;;;;;;
2019/11/25 12:54:18;;;;;;;18.2;15.2;;;;;;;;;;;;;
2019/11/25 12:56:41;;;;;;;17.4;15.2;;;;;;;;;;;;;
2019/11/25 12:59:15;;;;;;;17;14.5;;;;;;;;;;;;;
2019/11/25 13:01:40;;;;;;;19.5;14.8;;;;;;;;;;;;;
2019/11/25 13:04:02;;;;;;;16.3;13.6;;;;;;;;;;;;;
2019/11/25 13:06:34;;;;;;;15.6;13.1;;;;;;;;;;;;;
2019/11/25 13:09:08;;;;;;;17.3;14.4;;;;;;;;;;;;;
2019/11/25 13:11:36;;;;;;;17.4;13.5;;;;;;;;;;;;;
2019/11/25 13:14:01;;;;;;;16;13.7;;;;;;;;;;;;;
2019/11/25 13:16:27;;;;;;;16.7;13.8;;;;;;;;;;;;;
2019/11/25 13:18:55;;;;;;;16.6;13.6;;;;;;;;;;;;;
2019/11/25 13:21:19;;;;;;;17.1;14.2;;;;;;;;;;;;;
2019/11/25 13:23:45;;;;;;;20;14;;;;;;;;;;;;;
2019/11/25 13:26:13;;;;;;;21;14.5;;;;;;;;;;;;;
2019/11/25 13:28:35;;;;;;;19.4;13.4;;;;;;;;;;;;;
2019/11/25 13:31:01;;;;;;;20.1;13.7;;;;;;;;;;;;;
2019/11/25 13:33:26;;;;;;;15.3;12.7;;;;;;;;;;;;;
2019/11/25 13:35:55;;;;;;;18.1;12.9;;;;;;;;;;;;;
2019/11/25 13:38:18;;;;;;;17;13.2;;;;;;;;;;;;;
2019/11/25 13:40:44;;;;;;;16.9;13.1;;;;;;;;;;;;;
2019/11/25 13:43:10;;;;;;;19.3;13.9;;;;;;;;;;;;;
2019/11/25 13:45:39;;;;;;;16.4;13;;;;;;;;;;;;;
2019/11/25 13:48:02;;;;;;;16.5;13.5;;;;;;;;;;;;;
2019/11/25 13:50:36;;;;;;;15.9;13.5;;;;;;;;;;;;;
2019/11/25 13:53:00;;;;;;;17.4;12.9;;;;;;;;;;;;;
2019/11/25 13:55:32;;;;;;;14.6;12.7;;;;;;;;;;;;;
2019/11/25 13:57:55;;;;;;;16.4;12.6;;;;;;;;;;;;;
2019/11/25 14:00:24;;;;;;;18.6;13.1;;;;;;;;;;;;;
2019/11/25 14:02:53;;;;;;;15.2;12.9;;;;;;;;;;;;;
2019/11/25 14:05:12;;;;;;;19.7;12.5;;;;;;;;;;;;;
2019/11/25 14:07:37;;;;;;;15.8;12.5;;;;;;;;;;;;;
2019/11/25 14:10:01;;;;;;;14.7;12.8;;;;;;;;;;;;;
2019/11/25 14:13:56;;;;;;;15.1;13.1;;;;;;;;;;;;;
2019/11/25 14:15:07;;;;;;;15.7;12.7;;;;;;;;;;;;;
2019/11/25 14:17:53;;;;;;;16.4;13;;;;;;;;;;;;;
2019/11/25 14:19:48;;;;;;;17.4;13.6;;;;;;;;;;;;;
2019/11/25 14:22:15;;;;;;;16.2;13.7;;;;;;;;;;;;;
2019/11/25 14:24:40;;;;;;;17.3;14.6;;;;;;;;;;;;;
2019/11/25 14:27:08;;;;;;;18.3;14.3;;;;;;;;;;;;;
2019/11/25 14:29:33;;;;;;;19.3;14.1;;;;;;;;;;;;;
2019/11/25 14:32:03;;;;;;;16.7;13.8;;;;;;;;;;;;;
2019/11/25 14:34:29;;;;;;;16.8;14.2;;;;;;;;;;;;;
2019/11/25 14:36:56;;;;;;;20;14.4;;;;;;;;;;;;;
2019/11/25 14:39:22;;;;;;;21.8;15.5;;;;;;;;;;;;;
2019/11/25 14:41:48;;;;;;;19.9;14.9;;;;;;;;;;;;;
2019/11/25 14:44:38;;;;;;;23.9;15.3;;;;;;;;;;;;;
2019/11/25 14:46:50;;;;;;;21.5;14.6;;;;;;;;;;;;;
2019/11/25 14:49:20;;;;;;;25.5;15.3;;;;;;;;;;;;;
2019/11/25 14:51:45;;;;;;;21.8;15;;;;;;;;;;;;;
2019/11/25 14:54:09;;;;;;;22.4;15.7;;;;;;;;;;;;;
2019/11/25 14:56:34;;;;;;;25.7;18.7;;;;;;;;;;;;;
2019/11/25 14:59:02;;;;;;;27.5;20.8;;;;;;;;;;;;;
2019/11/25 15:01:26;;;;;;;25.8;18.6;;;;;;;;;;;;;
2019/11/25 15:03:53;;;;;;;28.1;21.6;;;;;;;;;;;;;
2019/11/25 15:06:15;;;;;;;25.3;19.5;;;;;;;;;;;;;
2019/11/25 15:08:45;;;;;;;30.4;22;;;;;;;;;;;;;
2019/11/25 15:11:10;;;;;;;29;21.4;;;;;;;;;;;;;
2019/11/25 15:13:37;;;;;;;26.9;17;;;;;;;;;;;;;
2019/11/25 15:16:01;;;;;;;23.5;17.3;;;;;;;;;;;;;
2019/11/25 15:18:27;;;;;;;20.9;16.3;;;;;;;;;;;;;
2019/11/25 15:20:56;;;;;;;24.1;18.3;;;;;;;;;;;;;
2019/11/25 15:23:23;;;;;;;27.7;18.5;;;;;;;;;;;;;
2019/11/25 15:25:47;;;;;;;25.7;19.5;;;;;;;;;;;;;
2019/11/25 15:28:15;;;;;;;29.6;21.6;;;;;;;;;;;;;
2019/11/25 15:30:41;;;;;;;29.7;21;;;;;;;;;;;;;
2019/11/25 15:33:05;;;;;;;27.3;21;;;;;;;;;;;;;
2019/11/25 15:35:32;;;;;;;29.1;21.9;;;;;;;;;;;;;
2019/11/25 15:37:56;;;;;;;27.9;21.6;;;;;;;;;;;;;
2019/11/25 15:40:22;;;;;;;28.3;21.9;;;;;;;;;;;;;
2019/11/25 15:42:53;;;;;;;29.6;21.6;;;;;;;;;;;;;
2019/11/25 15:45:17;;;;;;;30.8;22.5;;;;;;;;;;;;;
2019/11/25 15:47:42;;;;;;;29.7;22.1;;;;;;;;;;;;;
2019/11/25 15:50:08;;;;;;;29;22.8;;;;;;;;;;;;;
2019/11/25 15:52:33;;;;;;;30.2;22.6;;;;;;;;;;;;;
2019/11/25 15:54:56;;;;;;;29.1;23.1;;;;;;;;;;;;;
2019/11/25 15:57:23;;;;;;;29.1;23.4;;;;;;;;;;;;;
2019/11/25 15:59:50;;;;;;;30.6;24.5;;;;;;;;;;;;;
2019/11/25 16:02:17;;;;;;;29.9;25.7;;;;;;;;;;;;;
2019/11/25 16:07:41;;;;;;;33.6;26.3;;;;;;;;;;;;;
2019/11/25 16:10:13;;;;;;;35.7;27.6;;;;;;;;;;;;;
2019/11/25 16:12:35;;;;;;;41.5;27.4;;;;;;;;;;;;;
2019/11/25 16:15:02;;;;;;;40;28.4;;;;;;;;;;;;;
2019/11/25 16:17:28;;;;;;;40.2;29.2;;;;;;;;;;;;;
2019/11/25 16:19:54;;;;;;;50.6;31.5;;;;;;;;;;;;;
2019/11/25 16:22:22;;;;;;;58.9;34.6;;;;;;;;;;;;;
2019/11/25 16:24:49;;;;;;;141.2;34.6;;;;;;;;;;;;;
2019/11/25 16:27:15;;;;;;;88.6;35.3;;;;;;;;;;;;;
2019/11/25 16:29:40;;;;;;;92.4;32.4;;;;;;;;;;;;;
2019/11/25 16:32:06;;;;;;;77;34.9;;;;;;;;;;;;;
2019/11/25 16:34:43;;;;;;;175;33.7;;;;;;;;;;;;;
2019/11/25 16:37:05;;;;;;;71.3;34.1;;;;;;;;;;;;;
2019/11/25 16:39:29;;;;;;;269;33.2;;;;;;;;;;;;;
2019/11/25 16:41:57;;;;;;;195.1;35.7;;;;;;;;;;;;;
2019/11/25 16:44:23;;;;;;;140.5;36.6;;;;;;;;;;;;;
2019/11/25 16:46:46;;;;;;;78.8;37.6;;;;;;;;;;;;;
2019/11/25 16:49:18;;;;;;;93.2;36.6;;;;;;;;;;;;;
2019/11/25 16:51:39;;;;;;;82.3;36.8;;;;;;;;;;;;;
2019/11/25 16:54:06;;;;;;;90.8;38.4;;;;;;;;;;;;;
2019/11/25 16:56:36;;;;;;;67.5;37.6;;;;;;;;;;;;;
2019/11/25 16:59:01;;;;;;;48.1;32.3;;;;;;;;;;;;;
2019/11/25 17:01:34;;;;;;;42.9;29.4;;;;;;;;;;;;;
2019/11/25 17:04:02;;;;;;;40.8;29.6;;;;;;;;;;;;;
2019/11/25 17:09:16;;;;;;;43.8;29.9;;;;;;;;;;;;;
2019/11/25 17:11:23;;;;;;;46.4;31.2;;;;;;;;;;;;;
2019/11/25 17:13:44;;;;;;;52.3;34.3;;;;;;;;;;;;;
2019/11/25 17:16:09;;;;;;;63.1;31.9;;;;;;;;;;;;;
2019/11/25 17:18:35;;;;;;;80.8;33.8;;;;;;;;;;;;;
2019/11/25 17:21:01;;;;;;;89.1;32.1;;;;;;;;;;;;;
2019/11/25 17:23:26;;;;;;;85.4;33.7;;;;;;;;;;;;;
2019/11/25 17:25:59;;;;;;;86.9;52.5;;;;;;;;;;;;;
2019/11/25 17:28:23;;;;;;;74.1;38.5;;;;;;;;;;;;;
2019/11/25 17:30:47;;;;;;;63.7;36.7;;;;;;;;;;;;;
2019/11/25 17:35:42;;;;;;;66.1;42;;;;;;;;;;;;;
2019/11/25 17:38:12;;;;;;;62.6;36.1;;;;;;;;;;;;;
2019/11/25 17:40:47;;;;;;;66.9;36.2;;;;;;;;;;;;;
2019/11/25 17:44:42;;;;;;;93.6;45.8;;;;;;;;;;;;;
2019/11/25 17:47:11;;;;;;;72.2;39.4;;;;;;;;;;;;;
2019/11/25 17:49:37;;;;;;;84.4;41.5;;;;;;;;;;;;;
2019/11/25 17:52:01;;;;;;;87.4;44.6;;;;;;;;;;;;;
2019/11/25 17:54:25;;;;;;;99.7;60.6;;;;;;;;;;;;;
2019/11/25 17:56:56;;;;;;;87;45.5;;;;;;;;;;;;;
2019/11/25 17:59:19;;;;;;;86.8;46.2;;;;;;;;;;;;;
2019/11/25 18:01:47;;;;;;;79.9;41.8;;;;;;;;;;;;;
2019/11/25 18:06:48;;;;;;;83.6;42.2;;;;;;;;;;;;;
2019/11/25 18:09:13;;;;;;;93.6;45.3;;;;;;;;;;;;;
2019/11/25 18:11:38;;;;;;;80;41.9;;;;;;;;;;;;;
2019/11/25 18:14:03;;;;;;;87.3;50.5;;;;;;;;;;;;;
2019/11/25 18:16:29;;;;;;;63.1;40;;;;;;;;;;;;;
2019/11/25 18:18:56;;;;;;;65.6;40.6;;;;;;;;;;;;;
2019/11/25 18:21:20;;;;;;;64.4;38.7;;;;;;;;;;;;;
2019/11/25 18:23:45;;;;;;;64;40.4;;;;;;;;;;;;;
2019/11/25 18:26:15;;;;;;;63.2;39.9;;;;;;;;;;;;;
2019/11/25 18:28:38;;;;;;;57.4;38.9;;;;;;;;;;;;;
2019/11/25 18:31:02;;;;;;;58.7;40.7;;;;;;;;;;;;;
2019/11/25 18:33:29;;;;;;;52.5;36.1;;;;;;;;;;;;;
2019/11/25 18:35:55;;;;;;;54.3;36.6;;;;;;;;;;;;;
2019/11/25 18:38:33;;;;;;;50.2;34.4;;;;;;;;;;;;;
2019/11/25 18:40:46;;;;;;;48.9;33;;;;;;;;;;;;;
2019/11/25 18:43:16;;;;;;;43.7;30.2;;;;;;;;;;;;;
2019/11/25 18:45:38;;;;;;;47.8;30.1;;;;;;;;;;;;;
2019/11/25 18:48:04;;;;;;;40.7;28.2;;;;;;;;;;;;;
2019/11/25 18:50:38;;;;;;;44.4;28.6;;;;;;;;;;;;;
2019/11/25 18:52:56;;;;;;;43.7;28.4;;;;;;;;;;;;;
2019/11/25 18:55:20;;;;;;;38.3;26.6;;;;;;;;;;;;;
2019/11/25 18:57:51;;;;;;;35.6;25.3;;;;;;;;;;;;;
2019/11/25 19:00:15;;;;;;;34.5;23.9;;;;;;;;;;;;;
2019/11/25 19:02:42;;;;;;;35.5;23.9;;;;;;;;;;;;;